sensor_id;sensor_type;location;lat;lon;timestamp;P1;durP1;ratioP1;P2;durP2;ratioP2
9763;SDS011;4921;43.214;27.936;2023-06-14T00:02:00;2.33;;;1.90;;
9763;SDS011;4921;43.214;27.936;2023-06-14T00:04:27;1.93;;;1.83;;
9763;SDS011;4921;43.214;27.936;2023-06-14T00:06:54;2.03;;;1.90;;
9763;SDS011;4921;43.214;27.936;2023-06-14T00:09:22;2.03;;;1.93;;
9763;SDS011;4921;43.214;27.936;2023-06-14T00:11:50;1.77;;;1.67;;
9763;SDS011;4921;43.214;27.936;2023-06-14T00:14:16;5.07;;;2.10;;
9763;SDS011;4921;43.214;27.936;2023-06-14T00:16:45;2.67;;;1.80;;
9763;SDS011;4921;43.214;27.936;2023-06-14T00:19:12;1.90;;;1.80;;
9763;SDS011;4921;43.214;27.936;2023-06-14T00:21:41;2.23;;;1.93;;
9763;SDS011;4921;43.214;27.936;2023-06-14T00:24:08;4.00;;;2.20;;
9763;SDS011;4921;43.214;27.936;2023-06-14T00:26:35;2.87;;;1.90;;
9763;SDS011;4921;43.214;27.936;2023-06-14T00:29:02;2.00;;;1.80;;
9763;SDS011;4921;43.214;27.936;2023-06-14T00:31:29;2.13;;;1.90;;
9763;SDS011;4921;43.214;27.936;2023-06-14T00:33:58;4.60;;;2.00;;
9763;SDS011;4921;43.214;27.936;2023-06-14T00:36:25;3.63;;;1.93;;
9763;SDS011;4921;43.214;27.936;2023-06-14T00:38:52;2.00;;;1.90;;
9763;SDS011;4921;43.214;27.936;2023-06-14T00:41:19;4.53;;;1.97;;
9763;SDS011;4921;43.214;27.936;2023-06-14T00:43:46;2.20;;;2.00;;
9763;SDS011;4921;43.214;27.936;2023-06-14T00:46:14;2.17;;;2.00;;
9763;SDS011;4921;43.214;27.936;2023-06-14T00:48:41;2.10;;;1.87;;
9763;SDS011;4921;43.214;27.936;2023-06-14T00:51:10;3.23;;;2.30;;
9763;SDS011;4921;43.214;27.936;2023-06-14T00:53:37;1.93;;;1.83;;
9763;SDS011;4921;43.214;27.936;2023-06-14T00:56:05;2.50;;;2.30;;
9763;SDS011;4921;43.214;27.936;2023-06-14T00:58:32;2.10;;;2.00;;
9763;SDS011;4921;43.214;27.936;2023-06-14T01:00:59;2.00;;;1.90;;
9763;SDS011;4921;43.214;27.936;2023-06-14T01:03:27;2.97;;;2.20;;
9763;SDS011;4921;43.214;27.936;2023-06-14T01:05:56;2.37;;;2.17;;
9763;SDS011;4921;43.214;27.936;2023-06-14T01:08:35;2.63;;;2.30;;
9763;SDS011;4921;43.214;27.936;2023-06-14T01:11:12;4.60;;;2.60;;
9763;SDS011;4921;43.214;27.936;2023-06-14T01:13:45;3.83;;;2.40;;
9763;SDS011;4921;43.214;27.936;2023-06-14T01:16:12;3.50;;;2.53;;
9763;SDS011;4921;43.214;27.936;2023-06-14T01:18:41;3.10;;;2.17;;
9763;SDS011;4921;43.214;27.936;2023-06-14T01:21:19;4.97;;;2.47;;
9763;SDS011;4921;43.214;27.936;2023-06-14T01:23:48;2.90;;;2.47;;
9763;SDS011;4921;43.214;27.936;2023-06-14T01:26:18;2.80;;;2.60;;
9763;SDS011;4921;43.214;27.936;2023-06-14T01:28:46;3.13;;;2.60;;
9763;SDS011;4921;43.214;27.936;2023-06-14T01:31:16;4.63;;;2.50;;
9763;SDS011;4921;43.214;27.936;2023-06-14T01:33:46;2.53;;;2.40;;
9763;SDS011;4921;43.214;27.936;2023-06-14T01:36:15;2.33;;;2.13;;
9763;SDS011;4921;43.214;27.936;2023-06-14T01:38:44;2.77;;;2.37;;
9763;SDS011;4921;43.214;27.936;2023-06-14T01:41:15;2.60;;;2.40;;
9763;SDS011;4921;43.214;27.936;2023-06-14T01:43:42;2.47;;;2.27;;
9763;SDS011;4921;43.214;27.936;2023-06-14T01:46:10;3.10;;;2.20;;
9763;SDS011;4921;43.214;27.936;2023-06-14T01:48:38;3.80;;;2.73;;
9763;SDS011;4921;43.214;27.936;2023-06-14T01:51:05;2.47;;;2.27;;
9763;SDS011;4921;43.214;27.936;2023-06-14T01:53:31;2.67;;;2.43;;
9763;SDS011;4921;43.214;27.936;2023-06-14T01:55:59;4.93;;;2.83;;
9763;SDS011;4921;43.214;27.936;2023-06-14T01:58:28;4.07;;;2.53;;
9763;SDS011;4921;43.214;27.936;2023-06-14T02:00:54;2.43;;;2.20;;
9763;SDS011;4921;43.214;27.936;2023-06-14T02:03:22;3.60;;;2.93;;
9763;SDS011;4921;43.214;27.936;2023-06-14T02:05:50;3.20;;;2.90;;
9763;SDS011;4921;43.214;27.936;2023-06-14T02:08:17;3.43;;;2.70;;
9763;SDS011;4921;43.214;27.936;2023-06-14T02:10:44;3.53;;;3.10;;
9763;SDS011;4921;43.214;27.936;2023-06-14T02:13:11;4.80;;;2.77;;
9763;SDS011;4921;43.214;27.936;2023-06-14T02:15:39;2.77;;;2.47;;
9763;SDS011;4921;43.214;27.936;2023-06-14T02:18:08;3.20;;;2.73;;
9763;SDS011;4921;43.214;27.936;2023-06-14T02:20:36;3.10;;;2.90;;
9763;SDS011;4921;43.214;27.936;2023-06-14T02:23:03;3.17;;;2.87;;
9763;SDS011;4921;43.214;27.936;2023-06-14T02:25:31;6.60;;;3.23;;
9763;SDS011;4921;43.214;27.936;2023-06-14T02:27:58;2.90;;;2.70;;
9763;SDS011;4921;43.214;27.936;2023-06-14T02:30:25;3.30;;;3.00;;
9763;SDS011;4921;43.214;27.936;2023-06-14T02:32:53;4.30;;;3.20;;
9763;SDS011;4921;43.214;27.936;2023-06-14T02:35:20;3.43;;;3.13;;
9763;SDS011;4921;43.214;27.936;2023-06-14T02:37:49;3.37;;;3.07;;
9763;SDS011;4921;43.214;27.936;2023-06-14T02:40:17;3.53;;;3.23;;
9763;SDS011;4921;43.214;27.936;2023-06-14T02:42:44;4.57;;;3.13;;
9763;SDS011;4921;43.214;27.936;2023-06-14T02:45:11;4.03;;;3.40;;
9763;SDS011;4921;43.214;27.936;2023-06-14T02:47:38;4.17;;;3.23;;
9763;SDS011;4921;43.214;27.936;2023-06-14T02:50:08;4.13;;;3.77;;
9763;SDS011;4921;43.214;27.936;2023-06-14T02:52:35;3.63;;;3.33;;
9763;SDS011;4921;43.214;27.936;2023-06-14T02:55:02;4.40;;;3.30;;
9763;SDS011;4921;43.214;27.936;2023-06-14T02:57:29;6.90;;;3.40;;
9763;SDS011;4921;43.214;27.936;2023-06-14T02:59:56;3.77;;;3.30;;
9763;SDS011;4921;43.214;27.936;2023-06-14T03:02:23;3.73;;;3.30;;
9763;SDS011;4921;43.214;27.936;2023-06-14T03:04:50;3.37;;;2.97;;
9763;SDS011;4921;43.214;27.936;2023-06-14T03:07:18;3.43;;;3.23;;
9763;SDS011;4921;43.214;27.936;2023-06-14T03:09:45;4.17;;;3.50;;
9763;SDS011;4921;43.214;27.936;2023-06-14T03:12:13;4.43;;;3.73;;
9763;SDS011;4921;43.214;27.936;2023-06-14T03:14:42;5.17;;;3.20;;
9763;SDS011;4921;43.214;27.936;2023-06-14T03:17:11;4.00;;;3.70;;
9763;SDS011;4921;43.214;27.936;2023-06-14T03:19:39;6.37;;;3.20;;
9763;SDS011;4921;43.214;27.936;2023-06-14T03:22:06;6.40;;;3.70;;
9763;SDS011;4921;43.214;27.936;2023-06-14T03:24:34;4.60;;;3.87;;
9763;SDS011;4921;43.214;27.936;2023-06-14T03:27:02;4.93;;;3.50;;
9763;SDS011;4921;43.214;27.936;2023-06-14T03:29:30;8.40;;;4.03;;
9763;SDS011;4921;43.214;27.936;2023-06-14T03:31:57;5.97;;;4.00;;
9763;SDS011;4921;43.214;27.936;2023-06-14T03:34:25;4.20;;;3.30;;
9763;SDS011;4921;43.214;27.936;2023-06-14T03:36:53;3.43;;;3.13;;
9763;SDS011;4921;43.214;27.936;2023-06-14T03:39:20;4.27;;;3.87;;
9763;SDS011;4921;43.214;27.936;2023-06-14T03:41:49;3.70;;;3.33;;
9763;SDS011;4921;43.214;27.936;2023-06-14T03:44:16;3.50;;;3.20;;
9763;SDS011;4921;43.214;27.936;2023-06-14T03:46:44;4.07;;;3.67;;
9763;SDS011;4921;43.214;27.936;2023-06-14T03:49:11;6.23;;;4.23;;
9763;SDS011;4921;43.214;27.936;2023-06-14T03:51:38;3.17;;;2.87;;
9763;SDS011;4921;43.214;27.936;2023-06-14T03:54:06;4.90;;;4.00;;
9763;SDS011;4921;43.214;27.936;2023-06-14T03:56:33;5.17;;;3.70;;
9763;SDS011;4921;43.214;27.936;2023-06-14T03:59:02;3.87;;;3.57;;
9763;SDS011;4921;43.214;27.936;2023-06-14T04:01:29;3.60;;;3.03;;
9763;SDS011;4921;43.214;27.936;2023-06-14T04:03:56;5.73;;;4.10;;
9763;SDS011;4921;43.214;27.936;2023-06-14T04:06:24;7.80;;;4.13;;
9763;SDS011;4921;43.214;27.936;2023-06-14T04:08:56;4.67;;;4.10;;
9763;SDS011;4921;43.214;27.936;2023-06-14T04:11:29;6.40;;;4.07;;
9763;SDS011;4921;43.214;27.936;2023-06-14T04:13:56;7.13;;;5.10;;
9763;SDS011;4921;43.214;27.936;2023-06-14T04:16:25;7.60;;;4.93;;
9763;SDS011;4921;43.214;27.936;2023-06-14T04:18:54;4.20;;;3.67;;
9763;SDS011;4921;43.214;27.936;2023-06-14T04:21:23;10.93;;;4.33;;
9763;SDS011;4921;43.214;27.936;2023-06-14T04:23:51;12.13;;;5.57;;
9763;SDS011;4921;43.214;27.936;2023-06-14T04:26:20;11.70;;;5.93;;
9763;SDS011;4921;43.214;27.936;2023-06-14T04:28:48;8.97;;;6.67;;
9763;SDS011;4921;43.214;27.936;2023-06-14T04:31:16;10.47;;;6.67;;
9763;SDS011;4921;43.214;27.936;2023-06-14T04:33:44;15.10;;;7.50;;
9763;SDS011;4921;43.214;27.936;2023-06-14T04:36:12;8.97;;;6.30;;
9763;SDS011;4921;43.214;27.936;2023-06-14T04:38:43;10.33;;;7.87;;
9763;SDS011;4921;43.214;27.936;2023-06-14T04:41:11;11.10;;;7.63;;
9763;SDS011;4921;43.214;27.936;2023-06-14T04:43:38;10.60;;;7.90;;
9763;SDS011;4921;43.214;27.936;2023-06-14T04:46:05;5.80;;;5.20;;
9763;SDS011;4921;43.214;27.936;2023-06-14T04:48:35;9.40;;;7.03;;
9763;SDS011;4921;43.214;27.936;2023-06-14T04:51:06;8.77;;;5.83;;
9763;SDS011;4921;43.214;27.936;2023-06-14T04:53:33;6.60;;;5.80;;
9763;SDS011;4921;43.214;27.936;2023-06-14T04:56:00;5.97;;;5.30;;
9763;SDS011;4921;43.214;27.936;2023-06-14T04:58:28;6.80;;;4.73;;
9763;SDS011;4921;43.214;27.936;2023-06-14T05:00:55;4.90;;;4.23;;
9763;SDS011;4921;43.214;27.936;2023-06-14T05:03:24;5.60;;;4.10;;
9763;SDS011;4921;43.214;27.936;2023-06-14T05:05:52;5.30;;;4.80;;
9763;SDS011;4921;43.214;27.936;2023-06-14T05:08:20;5.93;;;4.73;;
9763;SDS011;4921;43.214;27.936;2023-06-14T05:10:49;5.17;;;3.97;;
9763;SDS011;4921;43.214;27.936;2023-06-14T05:13:16;5.00;;;4.20;;
9763;SDS011;4921;43.214;27.936;2023-06-14T05:15:43;4.07;;;3.77;;
9763;SDS011;4921;43.214;27.936;2023-06-14T05:18:12;5.30;;;4.50;;
9763;SDS011;4921;43.214;27.936;2023-06-14T05:20:40;6.77;;;5.60;;
9763;SDS011;4921;43.214;27.936;2023-06-14T05:23:08;9.17;;;4.60;;
9763;SDS011;4921;43.214;27.936;2023-06-14T05:25:42;7.70;;;5.17;;
9763;SDS011;4921;43.214;27.936;2023-06-14T05:28:10;4.30;;;3.90;;
9763;SDS011;4921;43.214;27.936;2023-06-14T05:30:37;3.20;;;3.00;;
9763;SDS011;4921;43.214;27.936;2023-06-14T05:33:05;3.77;;;3.47;;
9763;SDS011;4921;43.214;27.936;2023-06-14T05:35:32;5.37;;;3.70;;
9763;SDS011;4921;43.214;27.936;2023-06-14T05:37:59;5.63;;;3.67;;
9763;SDS011;4921;43.214;27.936;2023-06-14T05:40:26;4.77;;;4.30;;
9763;SDS011;4921;43.214;27.936;2023-06-14T05:42:55;4.73;;;4.10;;
9763;SDS011;4921;43.214;27.936;2023-06-14T05:45:22;9.20;;;4.43;;
9763;SDS011;4921;43.214;27.936;2023-06-14T05:47:49;5.83;;;4.53;;
9763;SDS011;4921;43.214;27.936;2023-06-14T05:50:16;6.03;;;4.40;;
9763;SDS011;4921;43.214;27.936;2023-06-14T05:52:43;4.47;;;4.10;;
9763;SDS011;4921;43.214;27.936;2023-06-14T05:55:10;4.50;;;3.77;;
9763;SDS011;4921;43.214;27.936;2023-06-14T05:57:38;7.73;;;4.57;;
9763;SDS011;4921;43.214;27.936;2023-06-14T06:00:07;4.50;;;4.10;;
9763;SDS011;4921;43.214;27.936;2023-06-14T06:02:39;5.93;;;3.87;;
9763;SDS011;4921;43.214;27.936;2023-06-14T06:05:07;3.80;;;3.50;;
9763;SDS011;4921;43.214;27.936;2023-06-14T06:07:34;4.33;;;3.93;;
9763;SDS011;4921;43.214;27.936;2023-06-14T06:10:02;5.63;;;4.50;;
9763;SDS011;4921;43.214;27.936;2023-06-14T06:12:30;4.07;;;3.67;;
9763;SDS011;4921;43.214;27.936;2023-06-14T06:14:57;7.07;;;4.17;;
9763;SDS011;4921;43.214;27.936;2023-06-14T06:17:26;7.00;;;3.80;;
9763;SDS011;4921;43.214;27.936;2023-06-14T06:19:53;4.73;;;3.50;;
9763;SDS011;4921;43.214;27.936;2023-06-14T06:22:20;3.80;;;3.50;;
9763;SDS011;4921;43.214;27.936;2023-06-14T06:24:47;3.70;;;3.40;;
9763;SDS011;4921;43.214;27.936;2023-06-14T06:27:14;3.67;;;3.33;;
9763;SDS011;4921;43.214;27.936;2023-06-14T06:29:43;5.87;;;3.20;;
9763;SDS011;4921;43.214;27.936;2023-06-14T06:32:11;3.87;;;2.97;;
9763;SDS011;4921;43.214;27.936;2023-06-14T06:34:39;2.80;;;2.60;;
9763;SDS011;4921;43.214;27.936;2023-06-14T06:37:06;2.93;;;2.73;;
9763;SDS011;4921;43.214;27.936;2023-06-14T06:39:34;6.87;;;3.27;;
9763;SDS011;4921;43.214;27.936;2023-06-14T06:42:01;4.57;;;2.70;;
9763;SDS011;4921;43.214;27.936;2023-06-14T06:44:28;4.27;;;2.53;;
9763;SDS011;4921;43.214;27.936;2023-06-14T06:46:55;5.13;;;2.43;;
9763;SDS011;4921;43.214;27.936;2023-06-14T06:49:22;3.47;;;2.43;;
9763;SDS011;4921;43.214;27.936;2023-06-14T06:54:38;2.57;;;2.37;;
9763;SDS011;4921;43.214;27.936;2023-06-14T06:57:05;2.23;;;1.87;;
9763;SDS011;4921;43.214;27.936;2023-06-14T06:59:34;3.53;;;2.27;;
9763;SDS011;4921;43.214;27.936;2023-06-14T07:02:01;3.93;;;2.47;;
9763;SDS011;4921;43.214;27.936;2023-06-14T07:04:28;2.90;;;2.70;;
9763;SDS011;4921;43.214;27.936;2023-06-14T07:06:56;2.57;;;2.37;;
9763;SDS011;4921;43.214;27.936;2023-06-14T07:09:24;2.80;;;2.53;;
9763;SDS011;4921;43.214;27.936;2023-06-14T07:11:51;3.70;;;2.70;;
9763;SDS011;4921;43.214;27.936;2023-06-14T07:14:19;2.70;;;2.40;;
9763;SDS011;4921;43.214;27.936;2023-06-14T07:16:48;3.13;;;2.30;;
9763;SDS011;4921;43.214;27.936;2023-06-14T07:19:15;4.67;;;2.57;;
9763;SDS011;4921;43.214;27.936;2023-06-14T07:21:42;3.07;;;2.60;;
9763;SDS011;4921;43.214;27.936;2023-06-14T07:24:09;3.17;;;2.83;;
9763;SDS011;4921;43.214;27.936;2023-06-14T07:26:38;4.97;;;2.60;;
9763;SDS011;4921;43.214;27.936;2023-06-14T07:29:05;4.87;;;2.70;;
9763;SDS011;4921;43.214;27.936;2023-06-14T07:31:32;4.37;;;2.40;;
9763;SDS011;4921;43.214;27.936;2023-06-14T07:33:59;3.23;;;2.40;;
9763;SDS011;4921;43.214;27.936;2023-06-14T07:36:26;4.40;;;2.80;;
9763;SDS011;4921;43.214;27.936;2023-06-14T07:38:53;2.43;;;2.27;;
9763;SDS011;4921;43.214;27.936;2023-06-14T07:41:20;4.03;;;2.50;;
9763;SDS011;4921;43.214;27.936;2023-06-14T07:43:49;2.63;;;2.20;;
9763;SDS011;4921;43.214;27.936;2023-06-14T07:46:16;2.83;;;2.43;;
9763;SDS011;4921;43.214;27.936;2023-06-14T07:48:43;5.30;;;2.57;;
9763;SDS011;4921;43.214;27.936;2023-06-14T07:51:10;2.67;;;2.40;;
9763;SDS011;4921;43.214;27.936;2023-06-14T07:53:37;2.10;;;2.00;;
9763;SDS011;4921;43.214;27.936;2023-06-14T07:56:06;2.80;;;2.10;;
9763;SDS011;4921;43.214;27.936;2023-06-14T07:58:33;5.33;;;2.73;;
9763;SDS011;4921;43.214;27.936;2023-06-14T08:01:02;2.47;;;2.33;;
9763;SDS011;4921;43.214;27.936;2023-06-14T08:03:31;4.03;;;2.07;;
9763;SDS011;4921;43.214;27.936;2023-06-14T08:05:58;3.23;;;2.10;;
9763;SDS011;4921;43.214;27.936;2023-06-14T08:08:27;2.23;;;2.10;;
9763;SDS011;4921;43.214;27.936;2023-06-14T08:10:58;2.90;;;2.43;;
9763;SDS011;4921;43.214;27.936;2023-06-14T08:13:25;2.33;;;2.13;;
9763;SDS011;4921;43.214;27.936;2023-06-14T08:15:52;2.50;;;2.30;;
9763;SDS011;4921;43.214;27.936;2023-06-14T08:18:20;3.17;;;2.53;;
9763;SDS011;4921;43.214;27.936;2023-06-14T08:20:47;4.70;;;2.40;;
9763;SDS011;4921;43.214;27.936;2023-06-14T08:23:15;4.87;;;2.70;;
9763;SDS011;4921;43.214;27.936;2023-06-14T08:25:44;2.47;;;2.27;;
9763;SDS011;4921;43.214;27.936;2023-06-14T08:28:11;4.50;;;2.63;;
9763;SDS011;4921;43.214;27.936;2023-06-14T08:30:38;17.73;;;3.93;;
9763;SDS011;4921;43.214;27.936;2023-06-14T08:33:05;3.47;;;3.27;;
9763;SDS011;4921;43.214;27.936;2023-06-14T08:35:34;4.50;;;2.97;;
9763;SDS011;4921;43.214;27.936;2023-06-14T08:38:02;3.37;;;3.13;;
9763;SDS011;4921;43.214;27.936;2023-06-14T08:40:29;3.37;;;3.07;;
9763;SDS011;4921;43.214;27.936;2023-06-14T08:42:57;4.67;;;2.80;;
9763;SDS011;4921;43.214;27.936;2023-06-14T08:45:24;3.97;;;3.30;;
9763;SDS011;4921;43.214;27.936;2023-06-14T08:47:51;4.13;;;3.63;;
9763;SDS011;4921;43.214;27.936;2023-06-14T08:50:23;3.37;;;2.93;;
9763;SDS011;4921;43.214;27.936;2023-06-14T08:52:54;3.60;;;3.30;;
9763;SDS011;4921;43.214;27.936;2023-06-14T08:55:22;3.07;;;2.77;;
9763;SDS011;4921;43.214;27.936;2023-06-14T08:57:53;3.10;;;2.83;;
9763;SDS011;4921;43.214;27.936;2023-06-14T09:00:22;3.10;;;2.90;;
9763;SDS011;4921;43.214;27.936;2023-06-14T09:02:50;3.20;;;3.00;;
9763;SDS011;4921;43.214;27.936;2023-06-14T09:05:21;8.87;;;2.97;;
9763;SDS011;4921;43.214;27.936;2023-06-14T09:07:49;7.47;;;4.13;;
9763;SDS011;4921;43.214;27.936;2023-06-14T09:10:18;3.83;;;3.53;;
9763;SDS011;4921;43.214;27.936;2023-06-14T09:12:45;4.80;;;3.17;;
9763;SDS011;4921;43.214;27.936;2023-06-14T09:15:12;7.23;;;3.17;;
9763;SDS011;4921;43.214;27.936;2023-06-14T09:17:40;3.87;;;3.37;;
9763;SDS011;4921;43.214;27.936;2023-06-14T09:20:08;3.97;;;3.57;;
9763;SDS011;4921;43.214;27.936;2023-06-14T09:22:36;3.43;;;3.13;;
9763;SDS011;4921;43.214;27.936;2023-06-14T09:25:04;3.30;;;3.00;;
9763;SDS011;4921;43.214;27.936;2023-06-14T09:27:34;3.43;;;3.20;;
9763;SDS011;4921;43.214;27.936;2023-06-14T09:30:01;3.17;;;2.90;;
9763;SDS011;4921;43.214;27.936;2023-06-14T09:32:29;4.07;;;3.20;;
9763;SDS011;4921;43.214;27.936;2023-06-14T09:34:56;4.50;;;4.10;;
9763;SDS011;4921;43.214;27.936;2023-06-14T09:37:27;4.83;;;3.50;;
9763;SDS011;4921;43.214;27.936;2023-06-14T09:39:55;3.27;;;2.97;;
9763;SDS011;4921;43.214;27.936;2023-06-14T09:42:23;3.97;;;3.23;;
9763;SDS011;4921;43.214;27.936;2023-06-14T09:44:53;10.23;;;4.00;;
9763;SDS011;4921;43.214;27.936;2023-06-14T09:47:21;3.60;;;3.30;;
9763;SDS011;4921;43.214;27.936;2023-06-14T09:49:48;4.20;;;2.80;;
9763;SDS011;4921;43.214;27.936;2023-06-14T09:52:17;4.27;;;3.20;;
9763;SDS011;4921;43.214;27.936;2023-06-14T09:54:46;3.47;;;3.17;;
9763;SDS011;4921;43.214;27.936;2023-06-14T09:57:14;4.30;;;3.17;;
9763;SDS011;4921;43.214;27.936;2023-06-14T09:59:43;3.37;;;2.90;;
9763;SDS011;4921;43.214;27.936;2023-06-14T10:02:22;5.73;;;3.20;;
9763;SDS011;4921;43.214;27.936;2023-06-14T10:04:53;4.70;;;3.20;;
9763;SDS011;4921;43.214;27.936;2023-06-14T10:07:26;3.03;;;2.73;;
9763;SDS011;4921;43.214;27.936;2023-06-14T10:09:56;3.20;;;3.00;;
9763;SDS011;4921;43.214;27.936;2023-06-14T10:12:24;3.43;;;2.57;;
9763;SDS011;4921;43.214;27.936;2023-06-14T10:14:55;5.53;;;2.93;;
9763;SDS011;4921;43.214;27.936;2023-06-14T10:17:30;4.07;;;3.40;;
9763;SDS011;4921;43.214;27.936;2023-06-14T10:20:06;5.27;;;2.80;;
9763;SDS011;4921;43.214;27.936;2023-06-14T10:22:45;3.90;;;3.10;;
9763;SDS011;4921;43.214;27.936;2023-06-14T10:25:25;3.47;;;3.17;;
9763;SDS011;4921;43.214;27.936;2023-06-14T10:28:02;2.83;;;2.63;;
9763;SDS011;4921;43.214;27.936;2023-06-14T10:30:29;3.10;;;2.90;;
9763;SDS011;4921;43.214;27.936;2023-06-14T10:33:04;4.43;;;3.10;;
9763;SDS011;4921;43.214;27.936;2023-06-14T10:35:33;3.00;;;2.80;;
9763;SDS011;4921;43.214;27.936;2023-06-14T10:38:07;4.30;;;2.70;;
9763;SDS011;4921;43.214;27.936;2023-06-14T10:40:35;2.73;;;2.53;;
9763;SDS011;4921;43.214;27.936;2023-06-14T10:48:44;4.07;;;3.27;;
9763;SDS011;4921;43.214;27.936;2023-06-14T10:51:17;3.87;;;3.20;;
9763;SDS011;4921;43.214;27.936;2023-06-14T10:53:46;3.90;;;2.97;;
9763;SDS011;4921;43.214;27.936;2023-06-14T10:56:26;5.90;;;3.20;;
9763;SDS011;4921;43.214;27.936;2023-06-14T10:58:54;3.30;;;3.00;;
9763;SDS011;4921;43.214;27.936;2023-06-14T11:01:32;2.93;;;2.73;;
9763;SDS011;4921;43.214;27.936;2023-06-14T11:04:08;3.10;;;2.80;;
9763;SDS011;4921;43.214;27.936;2023-06-14T11:06:47;3.10;;;2.90;;
9763;SDS011;4921;43.214;27.936;2023-06-14T11:09:29;3.50;;;3.20;;
9763;SDS011;4921;43.214;27.936;2023-06-14T11:12:17;5.20;;;2.73;;
9763;SDS011;4921;43.214;27.936;2023-06-14T11:14:45;3.73;;;3.53;;
9763;SDS011;4921;43.214;27.936;2023-06-14T11:17:13;3.20;;;3.00;;
9763;SDS011;4921;43.214;27.936;2023-06-14T11:19:41;3.20;;;2.90;;
9763;SDS011;4921;43.214;27.936;2023-06-14T11:22:08;3.27;;;2.97;;
9763;SDS011;4921;43.214;27.936;2023-06-14T11:24:35;4.20;;;3.10;;
9763;SDS011;4921;43.214;27.936;2023-06-14T11:27:03;6.23;;;2.90;;
9763;SDS011;4921;43.214;27.936;2023-06-14T11:29:34;3.17;;;2.97;;
9763;SDS011;4921;43.214;27.936;2023-06-14T11:32:00;3.40;;;3.20;;
9763;SDS011;4921;43.214;27.936;2023-06-14T11:34:28;3.37;;;3.10;;
9763;SDS011;4921;43.214;27.936;2023-06-14T11:36:56;5.43;;;3.33;;
9763;SDS011;4921;43.214;27.936;2023-06-14T11:39:24;3.17;;;2.77;;
9763;SDS011;4921;43.214;27.936;2023-06-14T11:41:52;3.80;;;3.30;;
9763;SDS011;4921;43.214;27.936;2023-06-14T11:44:20;3.00;;;2.80;;
9763;SDS011;4921;43.214;27.936;2023-06-14T11:46:47;3.43;;;3.13;;
9763;SDS011;4921;43.214;27.936;2023-06-14T11:49:15;3.93;;;3.10;;
9763;SDS011;4921;43.214;27.936;2023-06-14T11:51:42;3.40;;;2.77;;
9763;SDS011;4921;43.214;27.936;2023-06-14T11:54:11;3.63;;;2.97;;
9763;SDS011;4921;43.214;27.936;2023-06-14T11:56:38;3.50;;;2.97;;
9763;SDS011;4921;43.214;27.936;2023-06-14T11:59:05;3.37;;;3.17;;
9763;SDS011;4921;43.214;27.936;2023-06-14T12:01:35;3.10;;;2.80;;
9763;SDS011;4921;43.214;27.936;2023-06-14T12:04:03;3.63;;;3.10;;
9763;SDS011;4921;43.214;27.936;2023-06-14T12:06:31;5.00;;;3.10;;
9763;SDS011;4921;43.214;27.936;2023-06-14T12:09:04;3.87;;;3.47;;
9763;SDS011;4921;43.214;27.936;2023-06-14T12:11:37;3.47;;;3.27;;
9763;SDS011;4921;43.214;27.936;2023-06-14T12:14:04;4.63;;;3.60;;
9763;SDS011;4921;43.214;27.936;2023-06-14T12:16:32;4.10;;;3.80;;
9763;SDS011;4921;43.214;27.936;2023-06-14T12:19:01;5.93;;;4.90;;
9763;SDS011;4921;43.214;27.936;2023-06-14T12:21:36;6.17;;;5.67;;
9763;SDS011;4921;43.214;27.936;2023-06-14T12:24:05;6.00;;;5.43;;
9763;SDS011;4921;43.214;27.936;2023-06-14T12:26:33;6.97;;;6.10;;
9763;SDS011;4921;43.214;27.936;2023-06-14T12:29:06;6.77;;;6.10;;
9763;SDS011;4921;43.214;27.936;2023-06-14T12:31:34;7.17;;;6.47;;
9763;SDS011;4921;43.214;27.936;2023-06-14T12:34:00;7.23;;;6.53;;
9763;SDS011;4921;43.214;27.936;2023-06-14T12:36:28;7.40;;;6.70;;
9763;SDS011;4921;43.214;27.936;2023-06-14T12:38:55;7.30;;;6.60;;
9763;SDS011;4921;43.214;27.936;2023-06-14T12:41:22;6.80;;;6.10;;
9763;SDS011;4921;43.214;27.936;2023-06-14T12:43:49;6.40;;;5.90;;
9763;SDS011;4921;43.214;27.936;2023-06-14T12:46:18;7.73;;;6.63;;
9763;SDS011;4921;43.214;27.936;2023-06-14T12:48:46;7.57;;;6.73;;
9763;SDS011;4921;43.214;27.936;2023-06-14T12:51:13;7.50;;;6.80;;
9763;SDS011;4921;43.214;27.936;2023-06-14T12:53:40;7.53;;;6.03;;
9763;SDS011;4921;43.214;27.936;2023-06-14T12:56:07;7.20;;;6.17;;
9763;SDS011;4921;43.214;27.936;2023-06-14T12:58:34;6.30;;;5.80;;
9763;SDS011;4921;43.214;27.936;2023-06-14T13:01:01;6.87;;;6.13;;
9763;SDS011;4921;43.214;27.936;2023-06-14T13:03:29;7.23;;;6.63;;
9763;SDS011;4921;43.214;27.936;2023-06-14T13:05:58;9.83;;;7.23;;
9763;SDS011;4921;43.214;27.936;2023-06-14T13:08:25;9.00;;;6.80;;
9763;SDS011;4921;43.214;27.936;2023-06-14T13:10:53;7.40;;;6.80;;
9763;SDS011;4921;43.214;27.936;2023-06-14T13:13:20;7.00;;;6.33;;
9763;SDS011;4921;43.214;27.936;2023-06-14T13:15:47;7.27;;;6.67;;
9763;SDS011;4921;43.214;27.936;2023-06-14T13:18:15;6.87;;;6.20;;
9763;SDS011;4921;43.214;27.936;2023-06-14T13:20:43;7.93;;;6.00;;
9763;SDS011;4921;43.214;27.936;2023-06-14T13:23:11;7.00;;;6.30;;
9763;SDS011;4921;43.214;27.936;2023-06-14T13:25:38;9.23;;;5.93;;
9763;SDS011;4921;43.214;27.936;2023-06-14T13:28:06;8.53;;;6.23;;
9763;SDS011;4921;43.214;27.936;2023-06-14T13:30:33;7.07;;;6.00;;
9763;SDS011;4921;43.214;27.936;2023-06-14T13:33:01;8.00;;;6.43;;
9763;SDS011;4921;43.214;27.936;2023-06-14T13:35:29;7.43;;;6.23;;
9763;SDS011;4921;43.214;27.936;2023-06-14T13:37:57;6.70;;;6.00;;
9763;SDS011;4921;43.214;27.936;2023-06-14T13:40:24;7.43;;;6.80;;
9763;SDS011;4921;43.214;27.936;2023-06-14T13:42:52;10.00;;;6.50;;
9763;SDS011;4921;43.214;27.936;2023-06-14T13:45:19;8.20;;;7.23;;
9763;SDS011;4921;43.214;27.936;2023-06-14T13:47:46;8.50;;;7.60;;
9763;SDS011;4921;43.214;27.936;2023-06-14T13:50:14;8.90;;;7.23;;
9763;SDS011;4921;43.214;27.936;2023-06-14T13:52:42;8.13;;;7.23;;
9763;SDS011;4921;43.214;27.936;2023-06-14T13:55:11;7.73;;;6.90;;
9763;SDS011;4921;43.214;27.936;2023-06-14T13:57:39;7.87;;;6.67;;
9763;SDS011;4921;43.214;27.936;2023-06-14T14:00:06;7.00;;;6.30;;
9763;SDS011;4921;43.214;27.936;2023-06-14T14:02:34;6.53;;;5.93;;
9763;SDS011;4921;43.214;27.936;2023-06-14T14:05:01;8.17;;;7.37;;
9763;SDS011;4921;43.214;27.936;2023-06-14T14:07:28;7.37;;;6.67;;
9763;SDS011;4921;43.214;27.936;2023-06-14T14:09:56;7.90;;;6.87;;
9763;SDS011;4921;43.214;27.936;2023-06-14T14:12:24;8.10;;;7.43;;
9763;SDS011;4921;43.214;27.936;2023-06-14T14:14:51;9.43;;;8.00;;
9763;SDS011;4921;43.214;27.936;2023-06-14T14:17:18;8.17;;;7.43;;
9763;SDS011;4921;43.214;27.936;2023-06-14T14:19:45;8.60;;;7.90;;
9763;SDS011;4921;43.214;27.936;2023-06-14T14:22:12;8.27;;;7.53;;
9763;SDS011;4921;43.214;27.936;2023-06-14T14:24:39;9.33;;;8.37;;
9763;SDS011;4921;43.214;27.936;2023-06-14T14:27:06;8.30;;;7.47;;
9763;SDS011;4921;43.214;27.936;2023-06-14T14:29:35;8.03;;;7.23;;
9763;SDS011;4921;43.214;27.936;2023-06-14T14:32:02;8.77;;;7.60;;
9763;SDS011;4921;43.214;27.936;2023-06-14T14:34:29;8.53;;;7.47;;
9763;SDS011;4921;43.214;27.936;2023-06-14T14:36:56;7.47;;;6.73;;
9763;SDS011;4921;43.214;27.936;2023-06-14T14:39:23;8.07;;;7.27;;
9763;SDS011;4921;43.214;27.936;2023-06-14T14:41:50;9.00;;;8.10;;
9763;SDS011;4921;43.214;27.936;2023-06-14T14:44:18;9.83;;;7.60;;
9763;SDS011;4921;43.214;27.936;2023-06-14T14:46:46;8.73;;;7.93;;
9763;SDS011;4921;43.214;27.936;2023-06-14T14:49:13;7.90;;;7.10;;
9763;SDS011;4921;43.214;27.936;2023-06-14T14:51:40;10.20;;;8.00;;
9763;SDS011;4921;43.214;27.936;2023-06-14T14:54:07;8.43;;;7.73;;
9763;SDS011;4921;43.214;27.936;2023-06-14T14:56:34;8.73;;;8.03;;
9763;SDS011;4921;43.214;27.936;2023-06-14T14:59:03;8.57;;;7.73;;
9763;SDS011;4921;43.214;27.936;2023-06-14T15:01:30;8.20;;;7.43;;
9763;SDS011;4921;43.214;27.936;2023-06-14T15:03:58;9.47;;;8.23;;
9763;SDS011;4921;43.214;27.936;2023-06-14T15:06:26;8.83;;;8.00;;
9763;SDS011;4921;43.214;27.936;2023-06-14T15:08:53;8.20;;;7.33;;
9763;SDS011;4921;43.214;27.936;2023-06-14T15:11:20;8.90;;;8.10;;
9763;SDS011;4921;43.214;27.936;2023-06-14T15:13:47;8.83;;;7.93;;
9763;SDS011;4921;43.214;27.936;2023-06-14T15:16:15;8.60;;;7.60;;